sensor_id;sensor_type;location;lat;lon;timestamp;pressure;altitude;pressure_sealevel;temperature;humidity
48796;BME280;34607;48.520;-1.330;2023-07-28T06:25:08;99478.72;;;18.88;100.00
48796;BME280;34607;48.520;-1.330;2023-07-28T06:27:36;99488.00;;;18.99;100.00
48796;BME280;34607;48.520;-1.330;2023-07-28T06:30:05;99489.59;;;19.03;100.00
48796;BME280;34607;48.520;-1.330;2023-07-28T06:32:32;99485.13;;;19.06;100.00
48796;BME280;34607;48.520;-1.330;2023-07-28T06:34:59;99492.81;;;19.13;100.00
48796;BME280;34607;48.520;-1.330;2023-07-28T06:37:26;99491.81;;;19.15;100.00
48796;BME280;34607;48.520;-1.330;2023-07-28T06:39:53;99490.72;;;19.22;100.00
48796;BME280;34607;48.520;-1.330;2023-07-28T06:42:23;99488.78;;;19.27;100.00
48796;BME280;34607;48.520;-1.330;2023-07-28T06:44:54;99490.09;;;19.41;100.00
48796;BME280;34607;48.520;-1.330;2023-07-28T06:47:22;99483.91;;;19.43;100.00
48796;BME280;34607;48.520;-1.330;2023-07-28T06:49:49;99488.97;;;19.48;100.00
48796;BME280;34607;48.520;-1.330;2023-07-28T06:52:16;99490.19;;;19.64;100.00
48796;BME280;34607;48.520;-1.330;2023-07-28T06:54:44;99489.19;;;19.67;100.00
48796;BME280;34607;48.520;-1.330;2023-07-28T06:57:12;99491.66;;;19.72;100.00
48796;BME280;34607;48.520;-1.330;2023-07-28T06:59:41;99486.19;;;19.79;100.00
48796;BME280;34607;48.520;-1.330;2023-07-28T07:02:08;99489.72;;;19.78;100.00
48796;BME280;34607;48.520;-1.330;2023-07-28T07:04:37;99494.97;;;19.78;100.00
48796;BME280;34607;48.520;-1.330;2023-07-28T07:07:05;99488.69;;;19.82;100.00
48796;BME280;34607;48.520;-1.330;2023-07-28T07:09:32;99489.66;;;19.80;100.00
48796;BME280;34607;48.520;-1.330;2023-07-28T07:11:59;99497.91;;;19.94;100.00
48796;BME280;34607;48.520;-1.330;2023-07-28T07:14:26;99494.09;;;20.03;100.00
48796;BME280;34607;48.520;-1.330;2023-07-28T07:16:54;99499.19;;;20.08;100.00
48796;BME280;34607;48.520;-1.330;2023-07-28T07:19:21;99498.22;;;20.10;100.00
48796;BME280;34607;48.520;-1.330;2023-07-28T07:21:48;99503.97;;;20.20;100.00
48796;BME280;34607;48.520;-1.330;2023-07-28T07:24:16;99508.34;;;20.21;100.00
48796;BME280;34607;48.520;-1.330;2023-07-28T07:26:43;99499.03;;;20.12;100.00
48796;BME280;34607;48.520;-1.330;2023-07-28T07:29:11;99505.66;;;20.23;100.00
48796;BME280;34607;48.520;-1.330;2023-07-28T07:31:38;99494.94;;;20.51;100.00
48796;BME280;34607;48.520;-1.330;2023-07-28T07:34:06;99487.03;;;20.51;100.00
48796;BME280;34607;48.520;-1.330;2023-07-28T07:36:33;99485.59;;;20.67;100.00
48796;BME280;34607;48.520;-1.330;2023-07-28T07:39:00;99492.25;;;20.76;100.00
48796;BME280;34607;48.520;-1.330;2023-07-28T07:41:28;99491.28;;;20.79;100.00
48796;BME280;34607;48.520;-1.330;2023-07-28T07:43:56;99491.09;;;21.05;100.00
48796;BME280;34607;48.520;-1.330;2023-07-28T07:46:23;99497.44;;;21.22;100.00
48796;BME280;34607;48.520;-1.330;2023-07-28T07:48:50;99502.81;;;21.41;100.00
48796;BME280;34607;48.520;-1.330;2023-07-28T07:51:19;99501.97;;;21.61;100.00
48796;BME280;34607;48.520;-1.330;2023-07-28T07:53:46;99496.03;;;21.56;100.00
48796;BME280;34607;48.520;-1.330;2023-07-28T07:56:13;99504.34;;;21.46;100.00
48796;BME280;34607;48.520;-1.330;2023-07-28T07:58:40;99496.97;;;21.75;100.00
48796;BME280;34607;48.520;-1.330;2023-07-28T08:01:07;99499.47;;;21.78;100.00
48796;BME280;34607;48.520;-1.330;2023-07-28T08:03:34;99484.03;;;21.89;100.00
48796;BME280;34607;48.520;-1.330;2023-07-28T08:06:03;99503.72;;;22.01;100.00
48796;BME280;34607;48.520;-1.330;2023-07-28T08:08:32;99505.75;;;22.15;100.00
48796;BME280;34607;48.520;-1.330;2023-07-28T08:10:59;99500.50;;;22.34;100.00
48796;BME280;34607;48.520;-1.330;2023-07-28T08:13:26;99497.53;;;22.42;100.00
48796;BME280;34607;48.520;-1.330;2023-07-28T08:15:54;99510.34;;;22.31;100.00
48796;BME280;34607;48.520;-1.330;2023-07-28T08:18:21;99510.09;;;22.16;100.00
48796;BME280;34607;48.520;-1.330;2023-07-28T08:20:48;99510.88;;;22.18;100.00
48796;BME280;34607;48.520;-1.330;2023-07-28T08:23:15;99498.38;;;22.42;100.00
48796;BME280;34607;48.520;-1.330;2023-07-28T08:25:44;99497.66;;;22.58;100.00
48796;BME280;34607;48.520;-1.330;2023-07-28T08:28:11;99501.66;;;22.67;100.00
48796;BME280;34607;48.520;-1.330;2023-07-28T08:30:38;99497.81;;;22.55;100.00
48796;BME280;34607;48.520;-1.330;2023-07-28T08:33:05;99507.72;;;22.31;100.00
48796;BME280;34607;48.520;-1.330;2023-07-28T08:35:32;99512.75;;;22.16;100.00
48796;BME280;34607;48.520;-1.330;2023-07-28T08:37:59;99514.13;;;22.04;100.00
48796;BME280;34607;48.520;-1.330;2023-07-28T08:40:26;99502.41;;;21.91;100.00
48796;BME280;34607;48.520;-1.330;2023-07-28T08:42:55;99514.34;;;22.00;100.00
48796;BME280;34607;48.520;-1.330;2023-07-28T08:45:22;99509.13;;;21.98;100.00
48796;BME280;34607;48.520;-1.330;2023-07-28T08:47:50;99513.66;;;22.15;100.00
48796;BME280;34607;48.520;-1.330;2023-07-28T08:50:17;99516.63;;;22.28;100.00
48796;BME280;34607;48.520;-1.330;2023-07-28T08:52:44;99516.81;;;22.23;100.00
48796;BME280;34607;48.520;-1.330;2023-07-28T08:55:12;99516.16;;;22.18;100.00
48796;BME280;34607;48.520;-1.330;2023-07-28T08:57:40;99519.72;;;21.97;100.00
48796;BME280;34607;48.520;-1.330;2023-07-28T09:00:10;99517.59;;;21.86;100.00
48796;BME280;34607;48.520;-1.330;2023-07-28T09:02:40;99515.66;;;21.69;100.00
48796;BME280;34607;48.520;-1.330;2023-07-28T09:05:17;99522.13;;;21.62;100.00
48796;BME280;34607;48.520;-1.330;2023-07-28T09:07:45;99525.69;;;21.61;100.00
48796;BME280;34607;48.520;-1.330;2023-07-28T09:10:12;99530.03;;;21.62;100.00
48796;BME280;34607;48.520;-1.330;2023-07-28T09:12:44;99519.69;;;21.57;100.00
48796;BME280;34607;48.520;-1.330;2023-07-28T09:15:13;99526.56;;;21.61;100.00
48796;BME280;34607;48.520;-1.330;2023-07-28T09:17:42;99520.03;;;21.70;100.00
48796;BME280;34607;48.520;-1.330;2023-07-28T09:20:13;99531.34;;;21.93;100.00
48796;BME280;34607;48.520;-1.330;2023-07-28T09:22:41;99520.91;;;22.10;100.00
48796;BME280;34607;48.520;-1.330;2023-07-28T09:25:13;99498.91;;;22.11;99.41
48796;BME280;34607;48.520;-1.330;2023-07-28T09:27:40;99520.63;;;22.37;99.53
48796;BME280;34607;48.520;-1.330;2023-07-28T09:30:08;99522.31;;;22.38;98.26
48796;BME280;34607;48.520;-1.330;2023-07-28T09:32:36;99522.84;;;22.25;97.96
48796;BME280;34607;48.520;-1.330;2023-07-28T09:35:08;99528.81;;;22.10;97.88
48796;BME280;34607;48.520;-1.330;2023-07-28T09:37:40;99525.66;;;22.02;98.34
48796;BME280;34607;48.520;-1.330;2023-07-28T09:40:09;99529.75;;;22.09;99.30
48796;BME280;34607;48.520;-1.330;2023-07-28T09:42:38;99522.06;;;22.23;99.26
48796;BME280;34607;48.520;-1.330;2023-07-28T09:45:06;99510.53;;;22.47;98.28
48796;BME280;34607;48.520;-1.330;2023-07-28T09:47:36;99515.81;;;22.47;96.21
48796;BME280;34607;48.520;-1.330;2023-07-28T09:50:04;99516.06;;;22.40;96.43
48796;BME280;34607;48.520;-1.330;2023-07-28T09:52:34;99530.41;;;22.35;96.69
48796;BME280;34607;48.520;-1.330;2023-07-28T09:55:06;99524.06;;;22.39;96.61
48796;BME280;34607;48.520;-1.330;2023-07-28T09:57:37;99523.75;;;22.83;96.64
48796;BME280;34607;48.520;-1.330;2023-07-28T10:00:07;99511.69;;;23.68;96.31
48796;BME280;34607;48.520;-1.330;2023-07-28T10:02:39;99515.91;;;23.72;92.30
48796;BME280;34607;48.520;-1.330;2023-07-28T10:05:08;99518.59;;;23.35;92.39
48796;BME280;34607;48.520;-1.330;2023-07-28T10:07:38;99526.81;;;23.12;93.32
48796;BME280;34607;48.520;-1.330;2023-07-28T10:10:08;99510.38;;;23.05;93.31
48796;BME280;34607;48.520;-1.330;2023-07-28T10:12:42;99519.03;;;23.09;92.83
48796;BME280;34607;48.520;-1.330;2023-07-28T10:15:13;99520.59;;;23.13;93.00
48796;BME280;34607;48.520;-1.330;2023-07-28T10:17:49;99500.97;;;22.99;92.99
48796;BME280;34607;48.520;-1.330;2023-07-28T10:20:32;99525.13;;;23.28;93.15
48796;BME280;34607;48.520;-1.330;2023-07-28T10:23:09;99525.66;;;23.70;94.12
48796;BME280;34607;48.520;-1.330;2023-07-28T10:25:39;99527.47;;;24.04;90.78
48796;BME280;34607;48.520;-1.330;2023-07-28T10:28:07;99523.91;;;23.88;89.64
48796;BME280;34607;48.520;-1.330;2023-07-28T10:30:36;99527.31;;;23.37;89.26
48796;BME280;34607;48.520;-1.330;2023-07-28T10:33:26;99527.53;;;22.96;89.96
48796;BME280;34607;48.520;-1.330;2023-07-28T10:35:53;99521.75;;;22.88;91.84
48796;BME280;34607;48.520;-1.330;2023-07-28T10:38:31;99531.78;;;23.18;92.99
48796;BME280;34607;48.520;-1.330;2023-07-28T10:41:10;99527.63;;;23.49;91.30
48796;BME280;34607;48.520;-1.330;2023-07-28T10:43:38;99522.38;;;23.84;91.14
48796;BME280;34607;48.520;-1.330;2023-07-28T10:46:06;99513.94;;;23.75;90.70
48796;BME280;34607;48.520;-1.330;2023-07-28T10:48:36;99520.41;;;23.52;90.82
48796;BME280;34607;48.520;-1.330;2023-07-28T10:51:05;99534.16;;;23.42;91.24
48796;BME280;34607;48.520;-1.330;2023-07-28T10:53:32;99526.53;;;23.35;90.95
48796;BME280;34607;48.520;-1.330;2023-07-28T10:56:03;99532.84;;;23.33;90.52
48796;BME280;34607;48.520;-1.330;2023-07-28T10:58:33;99532.41;;;23.23;90.64
48796;BME280;34607;48.520;-1.330;2023-07-28T11:01:01;99530.72;;;23.22;91.36
48796;BME280;34607;48.520;-1.330;2023-07-28T11:03:28;99529.16;;;23.18;91.10
48796;BME280;34607;48.520;-1.330;2023-07-28T11:05:57;99531.16;;;23.13;90.94
48796;BME280;34607;48.520;-1.330;2023-07-28T11:08:25;99536.56;;;23.29;91.62
48796;BME280;34607;48.520;-1.330;2023-07-28T11:10:52;99532.28;;;23.44;90.58
48796;BME280;34607;48.520;-1.330;2023-07-28T11:13:19;99539.44;;;23.42;91.53
48796;BME280;34607;48.520;-1.330;2023-07-28T11:15:46;99539.38;;;23.43;90.96
48796;BME280;34607;48.520;-1.330;2023-07-28T11:18:15;99540.47;;;23.39;90.58
48796;BME280;34607;48.520;-1.330;2023-07-28T11:20:42;99532.91;;;23.49;91.56
48796;BME280;34607;48.520;-1.330;2023-07-28T11:23:13;99536.91;;;23.92;89.57
48796;BME280;34607;48.520;-1.330;2023-07-28T11:25:42;99535.78;;;23.97;89.64
48796;BME280;34607;48.520;-1.330;2023-07-28T11:28:09;99539.88;;;24.20;89.57
48796;BME280;34607;48.520;-1.330;2023-07-28T11:30:38;99541.34;;;24.25;87.97
48796;BME280;34607;48.520;-1.330;2023-07-28T11:33:08;99541.19;;;24.11;88.97
48796;BME280;34607;48.520;-1.330;2023-07-28T11:35:38;99551.06;;;23.91;90.16
48796;BME280;34607;48.520;-1.330;2023-07-28T11:38:05;99551.09;;;23.72;91.70
48796;BME280;34607;48.520;-1.330;2023-07-28T11:40:35;99553.28;;;23.47;92.82
48796;BME280;34607;48.520;-1.330;2023-07-28T11:43:03;99545.03;;;22.80;95.21
48796;BME280;34607;48.520;-1.330;2023-07-28T11:45:30;99557.38;;;22.41;96.98
48796;BME280;34607;48.520;-1.330;2023-07-28T11:47:59;99554.63;;;22.22;97.49
48796;BME280;34607;48.520;-1.330;2023-07-28T11:50:27;99555.84;;;22.15;98.31
48796;BME280;34607;48.520;-1.330;2023-07-28T11:52:56;99554.41;;;22.08;98.33
48796;BME280;34607;48.520;-1.330;2023-07-28T11:55:24;99559.41;;;22.14;99.09
48796;BME280;34607;48.520;-1.330;2023-07-28T11:57:53;99554.44;;;22.48;96.85
48796;BME280;34607;48.520;-1.330;2023-07-28T12:00:28;99534.19;;;22.86;95.95
48796;BME280;34607;48.520;-1.330;2023-07-28T12:03:03;99548.56;;;22.79;92.64
48796;BME280;34607;48.520;-1.330;2023-07-28T12:05:31;99544.81;;;22.66;94.31
48796;BME280;34607;48.520;-1.330;2023-07-28T12:08:00;99551.03;;;22.65;93.59
48796;BME280;34607;48.520;-1.330;2023-07-28T12:10:28;99546.09;;;22.95;94.13
48796;BME280;34607;48.520;-1.330;2023-07-28T12:13:03;99549.28;;;23.02;93.40
48796;BME280;34607;48.520;-1.330;2023-07-28T12:15:31;99548.72;;;23.14;93.16
48796;BME280;34607;48.520;-1.330;2023-07-28T12:18:07;99553.91;;;22.19;93.25
48796;BME280;34607;48.520;-1.330;2023-07-28T12:20:36;99555.59;;;22.21;95.00
48796;BME280;34607;48.520;-1.330;2023-07-28T12:23:04;99543.84;;;23.05;93.60
48796;BME280;34607;48.520;-1.330;2023-07-28T12:25:32;99550.50;;;23.85;90.32
48796;BME280;34607;48.520;-1.330;2023-07-28T12:28:00;99546.31;;;24.65;87.85
48796;BME280;34607;48.520;-1.330;2023-07-28T12:30:27;99551.06;;;24.74;85.57
48796;BME280;34607;48.520;-1.330;2023-07-28T12:32:55;99556.03;;;24.96;85.51
48796;BME280;34607;48.520;-1.330;2023-07-28T12:35:22;99561.34;;;24.64;85.09
48796;BME280;34607;48.520;-1.330;2023-07-28T12:37:50;99558.69;;;24.64;85.86
48796;BME280;34607;48.520;-1.330;2023-07-28T12:40:18;99563.25;;;24.11;86.76
48796;BME280;34607;48.520;-1.330;2023-07-28T12:42:46;99560.63;;;23.94;88.31
48796;BME280;34607;48.520;-1.330;2023-07-28T12:45:15;99561.84;;;24.38;88.32
48796;BME280;34607;48.520;-1.330;2023-07-28T12:47:42;99564.09;;;24.45;88.03
48796;BME280;34607;48.520;-1.330;2023-07-28T12:50:10;99567.72;;;24.27;87.73
48796;BME280;34607;48.520;-1.330;2023-07-28T12:52:37;99559.28;;;24.03;88.18
48796;BME280;34607;48.520;-1.330;2023-07-28T12:55:05;99543.19;;;23.90;88.52
48796;BME280;34607;48.520;-1.330;2023-07-28T12:57:32;99566.88;;;24.09;87.92
48796;BME280;34607;48.520;-1.330;2023-07-28T12:59:59;99567.16;;;24.04;88.98
48796;BME280;34607;48.520;-1.330;2023-07-28T13:02:27;99551.59;;;24.65;88.19
48796;BME280;34607;48.520;-1.330;2023-07-28T13:04:55;99555.00;;;25.31;86.97
48796;BME280;34607;48.520;-1.330;2023-07-28T13:07:22;99560.25;;;25.77;85.38
48796;BME280;34607;48.520;-1.330;2023-07-28T13:09:49;99565.47;;;26.23;83.95
48796;BME280;34607;48.520;-1.330;2023-07-28T13:12:16;99562.63;;;26.55;83.11
48796;BME280;34607;48.520;-1.330;2023-07-28T13:14:43;99566.03;;;26.57;82.64
48796;BME280;34607;48.520;-1.330;2023-07-28T13:17:10;99553.25;;;26.49;82.86
48796;BME280;34607;48.520;-1.330;2023-07-28T13:19:40;99545.16;;;26.94;80.96
48796;BME280;34607;48.520;-1.330;2023-07-28T13:22:07;99539.16;;;27.18;79.57
48796;BME280;34607;48.520;-1.330;2023-07-28T13:24:34;99540.69;;;27.22;80.00
48796;BME280;34607;48.520;-1.330;2023-07-28T13:27:01;99531.06;;;27.06;78.83
48796;BME280;34607;48.520;-1.330;2023-07-28T13:29:28;99532.97;;;27.04;78.81
48796;BME280;34607;48.520;-1.330;2023-07-28T13:31:58;99530.03;;;26.67;78.94
48796;BME280;34607;48.520;-1.330;2023-07-28T13:34:25;99538.66;;;26.71;79.89
48796;BME280;34607;48.520;-1.330;2023-07-28T13:36:54;99529.66;;;26.16;80.66
48796;BME280;34607;48.520;-1.330;2023-07-28T13:39:22;99526.97;;;25.27;81.32
48796;BME280;34607;48.520;-1.330;2023-07-28T13:41:49;99523.03;;;25.34;82.34
48796;BME280;34607;48.520;-1.330;2023-07-28T13:44:16;99513.66;;;25.58;82.96
48796;BME280;34607;48.520;-1.330;2023-07-28T13:46:43;99519.25;;;25.22;82.61
48796;BME280;34607;48.520;-1.330;2023-07-28T13:49:10;99514.97;;;24.73;82.63
48796;BME280;34607;48.520;-1.330;2023-07-28T13:51:37;99501.00;;;24.54;85.04
48796;BME280;34607;48.520;-1.330;2023-07-28T13:54:06;99512.25;;;24.75;85.02
48796;BME280;34607;48.520;-1.330;2023-07-28T13:56:33;99517.94;;;24.67;84.08
48796;BME280;34607;48.520;-1.330;2023-07-28T13:59:00;99529.91;;;24.25;85.33
48796;BME280;34607;48.520;-1.330;2023-07-28T14:01:27;99535.22;;;24.07;84.62
48796;BME280;34607;48.520;-1.330;2023-07-28T14:03:54;99532.19;;;24.15;85.27
48796;BME280;34607;48.520;-1.330;2023-07-28T14:06:22;99550.31;;;24.05;84.42
48796;BME280;34607;48.520;-1.330;2023-07-28T14:08:48;99552.91;;;23.89;84.25
48796;BME280;34607;48.520;-1.330;2023-07-28T14:11:18;99550.66;;;23.82;84.41
48796;BME280;34607;48.520;-1.330;2023-07-28T14:13:45;99551.75;;;23.95;83.27
48796;BME280;34607;48.520;-1.330;2023-07-28T14:16:12;99554.72;;;23.89;83.63
48796;BME280;34607;48.520;-1.330;2023-07-28T14:18:39;99548.31;;;23.93;83.18
48796;BME280;34607;48.520;-1.330;2023-07-28T14:21:07;99550.41;;;23.69;84.36
48796;BME280;34607;48.520;-1.330;2023-07-28T14:23:35;99551.50;;;23.65;83.82
48796;BME280;34607;48.520;-1.330;2023-07-28T14:26:03;99542.88;;;23.79;84.70
48796;BME280;34607;48.520;-1.330;2023-07-28T14:28:31;99522.28;;;23.85;83.38
48796;BME280;34607;48.520;-1.330;2023-07-28T14:30:58;99540.03;;;24.17;84.06
48796;BME280;34607;48.520;-1.330;2023-07-28T14:33:26;99542.81;;;24.31;81.89
48796;BME280;34607;48.520;-1.330;2023-07-28T14:35:53;99555.19;;;24.30;81.29
48796;BME280;34607;48.520;-1.330;2023-07-28T14:38:20;99555.16;;;24.15;81.34
48796;BME280;34607;48.520;-1.330;2023-07-28T14:40:47;99554.19;;;24.16;82.02
48796;BME280;34607;48.520;-1.330;2023-07-28T14:43:17;99546.31;;;24.65;82.82
48796;BME280;34607;48.520;-1.330;2023-07-28T14:45:46;99538.03;;;24.87;78.20
48796;BME280;34607;48.520;-1.330;2023-07-28T14:48:15;99548.75;;;25.00;78.26
48796;BME280;34607;48.520;-1.330;2023-07-28T14:50:42;99541.78;;;24.99;77.16
48796;BME280;34607;48.520;-1.330;2023-07-28T14:53:27;99546.31;;;24.97;75.27
48796;BME280;34607;48.520;-1.330;2023-07-28T14:55:55;99525.22;;;24.95;77.51
48796;BME280;34607;48.520;-1.330;2023-07-28T14:58:22;99532.72;;;25.03;77.18
48796;BME280;34607;48.520;-1.330;2023-07-28T15:00:50;99537.84;;;24.90;77.86
48796;BME280;34607;48.520;-1.330;2023-07-28T15:03:17;99538.09;;;24.85;77.32
48796;BME280;34607;48.520;-1.330;2023-07-28T15:05:44;99534.00;;;24.64;76.34
48796;BME280;34607;48.520;-1.330;2023-07-28T15:08:12;99529.22;;;24.86;77.55
48796;BME280;34607;48.520;-1.330;2023-07-28T15:10:40;99535.13;;;24.60;77.41
48796;BME280;34607;48.520;-1.330;2023-07-28T15:13:07;99531.88;;;24.86;77.89
48796;BME280;34607;48.520;-1.330;2023-07-28T15:15:34;99523.88;;;25.18;76.21
48796;BME280;34607;48.520;-1.330;2023-07-28T15:18:02;99526.97;;;25.27;76.43
48796;BME280;34607;48.520;-1.330;2023-07-28T15:20:30;99520.06;;;25.08;77.25
48796;BME280;34607;48.520;-1.330;2023-07-28T15:22:57;99523.38;;;25.12;77.58
48796;BME280;34607;48.520;-1.330;2023-07-28T15:25:24;99513.78;;;25.41;76.85
48796;BME280;34607;48.520;-1.330;2023-07-28T15:27:51;99516.50;;;25.39;75.66
48796;BME280;34607;48.520;-1.330;2023-07-28T15:30:19;99515.84;;;25.20;76.19
48796;BME280;34607;48.520;-1.330;2023-07-28T15:32:46;99490.28;;;25.19;76.41
48796;BME280;34607;48.520;-1.330;2023-07-28T15:35:15;99517.91;;;25.31;75.53
48796;BME280;34607;48.520;-1.330;2023-07-28T15:37:42;99484.25;;;25.33;76.39
48796;BME280;34607;48.520;-1.330;2023-07-28T15:40:10;99514.16;;;25.35;74.82
48796;BME280;34607;48.520;-1.330;2023-07-28T15:42:37;99502.00;;;25.31;74.48
48796;BME280;34607;48.520;-1.330;2023-07-28T15:45:05;99507.00;;;24.89;75.27
48796;BME280;34607;48.520;-1.330;2023-07-28T15:47:32;99492.22;;;24.53;76.79
48796;BME280;34607;48.520;-1.330;2023-07-28T15:50:01;99490.88;;;24.62;76.43
48796;BME280;34607;48.520;-1.330;2023-07-28T15:52:31;99485.41;;;24.81;76.32
48796;BME280;34607;48.520;-1.330;2023-07-28T15:54:58;99490.28;;;25.19;75.01
48796;BME280;34607;48.520;-1.330;2023-07-28T15:57:25;99503.97;;;25.43;75.44
48796;BME280;34607;48.520;-1.330;2023-07-28T15:59:52;99502.41;;;25.69;75.34
48796;BME280;34607;48.520;-1.330;2023-07-28T16:02:19;99497.59;;;25.90;74.63
48796;BME280;34607;48.520;-1.330;2023-07-28T16:04:46;99499.22;;;25.48;74.50
48796;BME280;34607;48.520;-1.330;2023-07-28T16:07:13;99491.97;;;25.36;75.57
48796;BME280;34607;48.520;-1.330;2023-07-28T16:09:42;99491.63;;;25.42;75.83
48796;BME280;34607;48.520;-1.330;2023-07-28T16:12:09;99495.28;;;25.55;75.80
48796;BME280;34607;48.520;-1.330;2023-07-28T16:14:36;99497.19;;;25.68;76.35
48796;BME280;34607;48.520;-1.330;2023-07-28T16:17:04;99498.41;;;25.76;75.30
48796;BME280;34607;48.520;-1.330;2023-07-28T16:19:31;99495.50;;;25.81;75.45
48796;BME280;34607;48.520;-1.330;2023-07-28T16:21:58;99491.13;;;25.66;74.88
48796;BME280;34607;48.520;-1.330;2023-07-28T16:24:26;99496.63;;;25.32;75.12
48796;BME280;34607;48.520;-1.330;2023-07-28T16:26:55;99487.84;;;25.16;76.80
48796;BME280;34607;48.520;-1.330;2023-07-28T16:29:22;99485.47;;;24.95;77.13
48796;BME280;34607;48.520;-1.330;2023-07-28T16:31:49;99489.59;;;24.85;76.36
48796;BME280;34607;48.520;-1.330;2023-07-28T16:34:16;99486.00;;;25.02;77.16
48796;BME280;34607;48.520;-1.330;2023-07-28T16:36:43;99488.81;;;24.99;76.99
48796;BME280;34607;48.520;-1.330;2023-07-28T16:39:10;99484.88;;;24.90;77.12
48796;BME280;34607;48.520;-1.330;2023-07-28T16:41:37;99491.44;;;24.83;77.47
48796;BME280;34607;48.520;-1.330;2023-07-28T16:44:05;99480.72;;;24.70;78.05
48796;BME280;34607;48.520;-1.330;2023-07-28T16:46:32;99475.34;;;24.56;79.62
48796;BME280;34607;48.520;-1.330;2023-07-28T16:48:59;99485.56;;;24.46;80.43
48796;BME280;34607;48.520;-1.330;2023-07-28T16:51:26;99487.69;;;24.39;79.87
48796;BME280;34607;48.520;-1.330;2023-07-28T16:53:54;99474.69;;;24.35;79.36
48796;BME280;34607;48.520;-1.330;2023-07-28T16:56:21;99478.97;;;24.37;79.29
48796;BME280;34607;48.520;-1.330;2023-07-28T16:58:48;99473.69;;;24.37;78.14
48796;BME280;34607;48.520;-1.330;2023-07-28T17:01:16;99477.34;;;24.35;79.22
48796;BME280;34607;48.520;-1.330;2023-07-28T17:03:44;99476.81;;;24.28;78.98
48796;BME280;34607;48.520;-1.330;2023-07-28T17:06:11;99470.91;;;24.23;80.76
48796;BME280;34607;48.520;-1.330;2023-07-28T17:08:39;99471.28;;;24.17;80.83
48796;BME280;34607;48.520;-1.330;2023-07-28T17:11:06;99466.97;;;24.14;81.93
48796;BME280;34607;48.520;-1.330;2023-07-28T17:13:33;99471.28;;;24.17;82.67
48796;BME280;34607;48.520;-1.330;2023-07-28T17:16:00;99473.31;;;24.11;83.36
48796;BME280;34607;48.520;-1.330;2023-07-28T17:18:28;99471.66;;;24.09;82.29
48796;BME280;34607;48.520;-1.330;2023-07-28T17:20:55;99471.28;;;24.17;81.18
48796;BME280;34607;48.520;-1.330;2023-07-28T17:23:23;99478.09;;;24.21;84.16
48796;BME280;34607;48.520;-1.330;2023-07-28T17:25:50;99475.19;;;24.09;83.31
48796;BME280;34607;48.520;-1.330;2023-07-28T17:28:17;99462.94;;;23.91;81.51
48796;BME280;34607;48.520;-1.330;2023-07-28T17:30:44;99463.63;;;23.95;81.27
48796;BME280;34607;48.520;-1.330;2023-07-28T17:33:11;99469.38;;;24.03;81.26
48796;BME280;34607;48.520;-1.330;2023-07-28T17:35:40;99475.34;;;24.06;80.36
48796;BME280;34607;48.520;-1.330;2023-07-28T17:38:08;99484.28;;;24.04;81.14
48796;BME280;34607;48.520;-1.330;2023-07-28T17:40:35;99481.63;;;24.04;81.53
48796;BME280;34607;48.520;-1.330;2023-07-28T17:43:02;99483.84;;;23.96;82.45
48796;BME280;34607;48.520;-1.330;2023-07-28T17:45:30;99485.03;;;23.90;85.11
48796;BME280;34607;48.520;-1.330;2023-07-28T17:47:57;99488.06;;;23.82;86.60
48796;BME280;34607;48.520;-1.330;2023-07-28T17:50:24;99485.03;;;23.72;87.27
48796;BME280;34607;48.520;-1.330;2023-07-28T17:52:52;99490.78;;;23.63;86.78
48796;BME280;34607;48.520;-1.330;2023-07-28T17:55:19;99487.63;;;23.56;88.20
48796;BME280;34607;48.520;-1.330;2023-07-28T17:57:46;99491.50;;;23.49;88.58
48796;BME280;34607;48.520;-1.330;2023-07-28T18:00:14;99481.31;;;23.42;89.55
48796;BME280;34607;48.520;-1.330;2023-07-28T18:02:41;99487.28;;;23.45;89.87
48796;BME280;34607;48.520;-1.330;2023-07-28T18:05:08;99486.59;;;23.42;89.65
48796;BME280;34607;48.520;-1.330;2023-07-28T18:07:35;99484.09;;;23.38;88.71
48796;BME280;34607;48.520;-1.330;2023-07-28T18:10:04;99481.31;;;23.42;89.05
48796;BME280;34607;48.520;-1.330;2023-07-28T18:12:32;99479.69;;;23.39;88.80
48796;BME280;34607;48.520;-1.330;2023-07-28T18:14:59;99480.75;;;23.35;88.19
48796;BME280;34607;48.520;-1.330;2023-07-28T18:17:26;99474.94;;;23.11;86.63
48796;BME280;34607;48.520;-1.330;2023-07-28T18:19:53;99478.47;;;23.10;87.67
48796;BME280;34607;48.520;-1.330;2023-07-28T18:22:20;99485.41;;;23.12;87.03
48796;BME280;34607;48.520;-1.330;2023-07-28T18:24:47;99484.97;;;23.03;86.78
48796;BME280;34607;48.520;-1.330;2023-07-28T18:27:15;99482.47;;;22.99;87.79
48796;BME280;34607;48.520;-1.330;2023-07-28T18:29:42;99481.78;;;22.96;88.26
48796;BME280;34607;48.520;-1.330;2023-07-28T18:32:09;99478.28;;;22.95;88.22
48796;BME280;34607;48.520;-1.330;2023-07-28T18:34:36;99491.13;;;22.84;87.83
48796;BME280;34607;48.520;-1.330;2023-07-28T18:37:03;99492.69;;;22.71;87.13
48796;BME280;34607;48.520;-1.330;2023-07-28T18:39:31;99495.31;;;22.71;87.33
48796;BME280;34607;48.520;-1.330;2023-07-28T18:41:59;99491.09;;;22.67;87.17
48796;BME280;34607;48.520;-1.330;2023-07-28T18:44:28;99494.13;;;22.59;86.84
48796;BME280;34607;48.520;-1.330;2023-07-28T18:46:55;99499.59;;;22.54;87.46
48796;BME280;34607;48.520;-1.330;2023-07-28T18:49:22;99514.78;;;22.49;87.76
48796;BME280;34607;48.520;-1.330;2023-07-28T18:51:49;99511.13;;;22.33;88.43
48796;BME280;34607;48.520;-1.330;2023-07-28T18:54:16;99515.97;;;22.23;89.27
48796;BME280;34607;48.520;-1.330;2023-07-28T18:56:43;99518.72;;;22.20;88.95
48796;BME280;34607;48.520;-1.330;2023-07-28T18:59:10;99528.69;;;22.13;89.03
48796;BME280;34607;48.520;-1.330;2023-07-28T19:01:39;99525.78;;;21.80;89.35
48796;BME280;34607;48.520;-1.330;2023-07-28T19:04:06;99529.31;;;21.79;89.64
48796;BME280;34607;48.520;-1.330;2023-07-28T19:06:33;99535.44;;;21.79;89.61
48796;BME280;34607;48.520;-1.330;2023-07-28T19:09:00;99536.88;;;21.66;89.19
48796;BME280;34607;48.520;-1.330;2023-07-28T19:11:27;99538.00;;;21.60;89.10
48796;BME280;34607;48.520;-1.330;2023-07-28T19:13:54;99541.75;;;21.55;88.87
48796;BME280;34607;48.520;-1.330;2023-07-28T19:16:21;99552.25;;;21.56;88.75